Time;durP1;ratioP1;P1;durP2;ratioP2;P2;SDS_P1;SDS_P2;PMS_P1;PMS_P2;Temp;Humidity;BMP_temperature;BMP_pressure;BME280_temperature;BME280_humidity;BME280_pressure;Samples;Min_cycle;Max_cycle;Signal;HPM_P1;HPM_P2
2023/04/05 00:00:54;;;;;;;5.38;2.72;;;10.30;99.90;;;;;;5053882;28;20037;-38
2023/04/05 00:03:19;;;;;;;5.85;3.00;;;10.30;99.90;;;;;;5053787;28;20021;-36
2023/04/05 00:05:48;;;;;;;4.65;3.08;;;10.30;99.90;;;;;;5054669;28;20429;-39
2023/04/05 00:08:22;;;;;;;5.07;2.63;;;10.30;99.90;;;;;;5054178;28;20032;-37
2023/04/05 00:10:49;;;;;;;5.45;3.00;;;10.30;99.90;;;;;;5054634;28;20123;-36
2023/04/05 00:13:15;;;;;;;7.07;2.83;;;10.30;99.90;;;;;;5054067;28;20113;-38
2023/04/05 00:15:41;;;;;;;5.68;3.20;;;10.30;99.90;;;;;;5053568;28;20051;-35
2023/04/05 00:18:07;;;;;;;5.80;3.25;;;10.30;99.90;;;;;;5053604;28;20025;-40
2023/04/05 00:20:36;;;;;;;5.13;2.72;;;10.30;99.90;;;;;;5054944;28;20032;-37
2023/04/05 00:23:01;;;;;;;4.80;2.97;;;10.30;99.90;;;;;;5054045;28;20035;-36
2023/04/05 00:25:27;;;;;;;6.32;2.88;;;10.30;99.90;;;;;;5054498;28;20036;-38
2023/04/05 00:27:53;;;;;;;5.00;2.75;;;10.30;99.90;;;;;;5054156;28;20441;-38
2023/04/05 00:30:22;;;;;;;4.57;2.70;;;10.30;99.90;;;;;;5053801;28;20024;-37
2023/04/05 00:32:48;;;;;;;4.35;2.78;;;10.30;99.90;;;;;;5053379;28;20052;-38
2023/04/05 00:35:15;;;;;;;7.45;3.30;;;10.30;99.90;;;;;;5054073;28;20037;-39
2023/04/05 00:37:40;;;;;;;4.68;2.53;;;10.30;99.90;;;;;;5052897;28;20070;-39
2023/04/05 00:40:06;;;;;;;6.15;3.28;;;10.30;99.90;;;;;;5053990;28;20033;-36
2023/04/05 00:42:32;;;;;;;5.53;2.67;;;10.30;99.90;;;;;;5054112;28;20033;-38
2023/04/05 00:44:58;;;;;;;8.13;2.92;;;10.30;99.90;;;;;;5053329;28;20071;-39
2023/04/05 00:47:23;;;;;;;6.53;3.20;;;10.30;99.90;;;;;;5053001;28;20064;-35
2023/04/05 00:49:49;;;;;;;4.57;2.95;;;10.20;99.90;;;;;;5052907;28;20017;-36
2023/04/05 00:52:16;;;;;;;3.85;2.70;;;10.30;99.90;;;;;;5053041;28;20368;-37
2023/04/05 00:54:43;;;;;;;4.43;2.72;;;10.20;99.90;;;;;;5052806;28;20035;-38
2023/04/05 00:57:09;;;;;;;8.18;3.20;;;10.30;99.90;;;;;;5052316;28;20060;-40
2023/04/05 00:59:35;;;;;;;4.35;3.03;;;10.20;99.90;;;;;;5053513;28;20037;-37
2023/04/05 01:02:25;;;;;;;4.82;2.67;;;10.20;99.90;;;;;;5053605;28;20078;-38
2023/04/05 01:05:00;;;;;;;5.55;2.97;;;10.30;99.90;;;;;;5053641;28;20041;-36
2023/04/05 01:07:50;;;;;;;6.22;2.90;;;10.70;99.90;;;;;;5052752;28;20517;-39
2023/04/05 01:10:17;;;;;;;5.18;3.00;;;10.70;99.90;;;;;;5052823;28;20335;-38
2023/04/05 01:12:44;;;;;;;4.97;2.72;;;10.70;99.90;;;;;;5053660;28;20025;-39
2023/04/05 01:15:11;;;;;;;6.72;2.65;;;10.70;99.90;;;;;;5052658;28;20032;-36
2023/04/05 01:17:37;;;;;;;4.65;2.88;;;10.60;99.90;;;;;;5052802;28;20016;-37
2023/04/05 01:20:09;;;;;;;4.22;2.60;;;10.60;99.90;;;;;;5054124;28;20025;-36
2023/04/05 01:23:05;;;;;;;3.97;2.72;;;10.50;99.90;;;;;;5053743;28;20060;-36
2023/04/05 01:25:52;;;;;;;3.78;2.65;;;10.40;99.90;;;;;;5053436;28;20111;-38
2023/04/05 01:28:33;;;;;;;6.63;2.72;;;10.40;99.90;;;;;;5052643;28;20029;-36
2023/04/05 01:31:25;;;;;;;3.65;2.40;;;10.40;99.90;;;;;;5053034;28;20032;-38
2023/04/05 01:34:24;;;;;;;4.90;2.95;;;10.40;99.90;;;;;;5052805;28;20025;-37
2023/04/05 01:37:00;;;;;;;7.93;2.80;;;10.30;99.90;;;;;;5051841;28;20487;-35
2023/04/05 01:39:27;;;;;;;5.82;2.95;;;10.30;99.90;;;;;;5052053;28;20116;-39
2023/04/05 01:41:58;;;;;;;5.97;2.78;;;10.30;99.90;;;;;;5051991;28;20046;-36
2023/04/05 01:44:24;;;;;;;3.75;2.75;;;10.30;99.90;;;;;;5053441;28;20035;-38
2023/04/05 01:46:50;;;;;;;5.00;2.50;;;10.30;99.90;;;;;;5051881;28;20107;-38
2023/04/05 01:49:15;;;;;;;4.75;2.63;;;10.30;99.90;;;;;;5052932;28;20027;-36
2023/04/05 01:51:41;;;;;;;4.57;2.72;;;10.30;99.90;;;;;;5052087;28;20374;-38
2023/04/05 01:54:07;;;;;;;6.95;2.60;;;10.30;99.90;;;;;;5052546;28;20056;-39
2023/04/05 01:56:34;;;;;;;4.40;2.80;;;10.30;99.90;;;;;;5051183;28;20083;-39
2023/04/05 01:58:59;;;;;;;3.47;2.53;;;10.30;99.90;;;;;;5051759;28;20029;-37
2023/04/05 02:01:25;;;;;;;5.15;2.70;;;10.30;99.90;;;;;;5051859;28;20036;-39
2023/04/05 02:03:51;;;;;;;5.70;2.58;;;10.20;99.90;;;;;;5051585;28;20025;-36
2023/04/05 02:06:16;;;;;;;3.85;2.28;;;10.50;99.90;;;;;;5051632;28;20590;-38
2023/04/05 02:08:42;;;;;;;3.28;2.25;;;10.80;99.90;;;;;;5052164;28;20483;-38
2023/04/05 02:11:07;;;;;;;5.28;2.75;;;10.80;99.90;;;;;;5051420;28;20111;-38
2023/04/05 02:13:33;;;;;;;4.57;2.63;;;10.70;99.90;;;;;;5051993;28;20471;-38
2023/04/05 02:15:59;;;;;;;6.10;2.60;;;10.60;99.90;;;;;;5050933;28;20585;-36
2023/04/05 02:18:30;;;;;;;4.40;2.40;;;10.60;99.90;;;;;;5052668;28;20033;-38
2023/04/05 02:21:04;;;;;;;4.32;2.60;;;10.50;99.90;;;;;;5052739;28;20072;-37
2023/04/05 02:23:30;;;;;;;4.40;2.33;;;10.50;99.90;;;;;;5051601;28;20021;-38
2023/04/05 02:25:56;;;;;;;5.47;3.13;;;10.40;99.90;;;;;;5052507;28;20029;-38
2023/04/05 02:28:22;;;;;;;4.97;2.65;;;10.40;99.90;;;;;;5051362;28;20057;-36
2023/04/05 02:30:47;;;;;;;4.65;2.72;;;10.40;99.90;;;;;;5052923;28;20029;-38
2023/04/05 02:33:13;;;;;;;4.55;2.80;;;10.30;99.90;;;;;;5051646;28;20029;-36
2023/04/05 02:35:39;;;;;;;4.80;2.65;;;10.30;99.90;;;;;;5053051;28;20025;-36
2023/04/05 02:38:04;;;;;;;4.07;2.38;;;10.30;99.90;;;;;;5051271;28;20033;-36
2023/04/05 02:40:31;;;;;;;3.97;2.35;;;10.30;99.90;;;;;;5051628;28;20057;-37
2023/04/05 02:42:56;;;;;;;3.97;2.60;;;10.20;99.90;;;;;;5051512;28;20029;-36
2023/04/05 02:45:22;;;;;;;5.75;2.65;;;10.20;99.90;;;;;;5050334;28;20032;-38
2023/04/05 02:47:48;;;;;;;4.28;2.55;;;10.20;99.90;;;;;;5051270;28;20111;-36
2023/04/05 02:50:13;;;;;;;4.80;2.70;;;10.20;99.90;;;;;;5051362;28;20024;-38
2023/04/05 02:52:39;;;;;;;4.97;2.80;;;10.20;99.90;;;;;;5050887;28;20013;-38
2023/04/05 02:55:06;;;;;;;6.30;2.55;;;10.20;99.90;;;;;;5051116;28;20025;-37
2023/04/05 02:57:31;;;;;;;4.88;2.65;;;10.20;99.90;;;;;;5050243;28;20055;-39
2023/04/05 02:59:57;;;;;;;3.45;2.40;;;10.10;99.90;;;;;;5051334;28;20021;-36
2023/04/05 03:02:23;;;;;;;3.90;2.78;;;10.20;99.90;;;;;;5051792;28;20056;-36
2023/04/05 03:04:52;;;;;;;2.88;2.30;;;10.30;99.90;;;;;;5052248;28;20158;-36
2023/04/05 03:07:17;;;;;;;5.57;2.78;;;10.60;99.90;;;;;;5051385;28;20021;-35
2023/04/05 03:09:45;;;;;;;4.93;2.70;;;10.70;99.90;;;;;;5051272;28;20036;-38
2023/04/05 03:12:11;;;;;;;5.18;2.55;;;10.60;99.90;;;;;;5051495;28;20090;-39
2023/04/05 03:14:38;;;;;;;3.53;2.25;;;10.60;99.90;;;;;;5052011;28;20060;-39
2023/04/05 03:17:03;;;;;;;3.38;2.40;;;10.50;99.90;;;;;;5052080;28;20036;-39
2023/04/05 03:19:29;;;;;;;5.35;2.67;;;10.40;99.90;;;;;;5052241;28;20033;-36
2023/04/05 03:21:56;;;;;;;5.05;2.28;;;10.40;99.90;;;;;;5051645;28;20072;-36
2023/04/05 03:24:22;;;;;;;4.75;2.55;;;10.30;99.90;;;;;;5051186;28;20497;-36
2023/04/05 03:26:49;;;;;;;4.28;2.42;;;10.20;99.90;;;;;;5050015;28;20117;-38
2023/04/05 03:29:16;;;;;;;4.57;2.58;;;10.20;99.90;;;;;;5051084;28;20120;-37
2023/04/05 03:31:42;;;;;;;7.70;2.83;;;10.20;99.90;;;;;;5051103;28;20021;-37
2023/04/05 03:34:07;;;;;;;6.75;2.58;;;10.20;99.90;;;;;;5051628;28;20022;-37
2023/04/05 03:36:40;;;;;;;7.20;2.80;;;10.10;99.90;;;;;;5050942;28;20031;-37
2023/04/05 03:39:09;;;;;;;4.80;2.90;;;10.10;99.90;;;;;;5050924;28;20490;-38
2023/04/05 03:41:36;;;;;;;5.32;3.13;;;10.10;99.90;;;;;;5050413;28;20033;-39
2023/04/05 03:44:02;;;;;;;5.82;3.22;;;10.10;99.90;;;;;;5051230;28;20096;-38
2023/04/05 03:46:27;;;;;;;7.70;3.10;;;10.00;99.90;;;;;;5050982;28;20081;-38
2023/04/05 03:48:53;;;;;;;5.20;2.97;;;10.00;99.90;;;;;;5051451;28;20022;-36
2023/04/05 03:51:18;;;;;;;4.72;3.15;;;10.10;99.90;;;;;;5050820;28;20028;-36
2023/04/05 03:53:45;;;;;;;5.68;2.80;;;10.00;99.90;;;;;;5051489;28;20021;-36
2023/04/05 03:56:11;;;;;;;4.13;2.67;;;10.00;99.90;;;;;;5049952;28;20021;-39
2023/04/05 03:58:37;;;;;;;5.13;3.33;;;10.00;99.90;;;;;;5051138;28;20108;-38
2023/04/05 04:01:03;;;;;;;5.43;2.75;;;10.00;99.90;;;;;;5051449;28;20106;-36
2023/04/05 04:03:29;;;;;;;5.22;3.40;;;10.00;99.90;;;;;;5050660;28;20028;-36
2023/04/05 04:05:56;;;;;;;5.57;3.20;;;10.20;99.90;;;;;;5050330;28;20061;-36
2023/04/05 04:08:22;;;;;;;4.78;3.08;;;10.50;99.90;;;;;;5051419;28;20036;-36
2023/04/05 04:10:48;;;;;;;6.40;3.30;;;10.60;99.90;;;;;;5053970;28;20029;-36
2023/04/05 04:13:14;;;;;;;7.03;3.10;;;10.50;99.90;;;;;;5053845;28;20021;-38
2023/04/05 04:15:40;;;;;;;6.00;3.00;;;10.40;99.90;;;;;;5053889;28;20390;-37
2023/04/05 04:18:05;;;;;;;4.88;3.25;;;10.40;99.90;;;;;;5053732;28;20028;-36
2023/04/05 04:20:31;;;;;;;5.40;2.88;;;10.30;99.90;;;;;;5054661;28;20052;-36
2023/04/05 04:22:57;;;;;;;4.95;3.13;;;10.20;99.90;;;;;;5053572;28;20037;-36
2023/04/05 04:25:25;;;;;;;8.65;3.13;;;10.20;99.90;;;;;;5053462;28;20059;-39
2023/04/05 04:27:51;;;;;;;4.85;3.00;;;10.10;99.90;;;;;;5053118;28;20031;-36
2023/04/05 04:30:21;;;;;;;5.60;3.38;;;10.10;99.90;;;;;;5054642;28;20048;-38
2023/04/05 04:32:57;;;;;;;7.70;3.22;;;10.10;99.90;;;;;;5053653;28;20120;-39
2023/04/05 04:35:27;;;;;;;5.55;2.95;;;10.00;99.90;;;;;;5053251;28;20021;-38
2023/04/05 04:37:58;;;;;;;6.82;3.15;;;10.00;99.90;;;;;;5052921;28;20037;-36
2023/04/05 04:40:46;;;;;;;7.45;2.97;;;9.90;99.90;;;;;;5053662;28;20063;-36
2023/04/05 04:43:16;;;;;;;5.53;3.00;;;9.90;99.90;;;;;;5053876;28;20017;-38
2023/04/05 04:45:49;;;;;;;5.47;3.25;;;9.90;99.90;;;;;;5052601;28;20021;-37
2023/04/05 04:48:15;;;;;;;7.78;3.88;;;9.90;99.90;;;;;;5054458;28;20390;-38
2023/04/05 04:50:50;;;;;;;8.05;4.30;;;9.50;99.80;;;;;;5053043;28;20037;-38
2023/04/05 04:53:17;;;;;;;6.03;3.95;;;9.10;99.90;;;;;;5053100;28;20017;-37
2023/04/05 04:55:43;;;;;;;8.90;4.13;;;9.10;99.90;;;;;;5052787;28;20017;-37
2023/04/05 04:58:11;;;;;;;10.80;4.30;;;9.00;99.90;;;;;;5052589;28;20111;-38
2023/04/05 05:00:43;;;;;;;8.63;4.28;;;9.00;99.90;;;;;;5052705;28;20096;-38
2023/04/05 05:03:12;;;;;;;7.30;3.53;;;9.00;99.90;;;;;;5052658;28;20033;-38
2023/04/05 05:05:45;;;;;;;8.90;4.03;;;9.20;99.90;;;;;;5052650;28;20411;-38
2023/04/05 05:08:12;;;;;;;6.05;3.83;;;9.60;99.90;;;;;;5052572;28;20416;-37
2023/04/05 05:10:37;;;;;;;7.60;3.50;;;9.70;99.90;;;;;;5052729;28;20025;-38
2023/04/05 05:13:03;;;;;;;8.18;3.97;;;9.70;99.90;;;;;;5051285;28;20525;-38
2023/04/05 05:15:29;;;;;;;5.85;3.67;;;9.70;99.90;;;;;;5052554;28;20021;-37
2023/04/05 05:17:55;;;;;;;7.38;3.88;;;9.70;99.90;;;;;;5050879;28;20816;-38
2023/04/05 05:20:21;;;;;;;5.60;3.55;;;9.60;99.90;;;;;;5052425;28;20024;-38
2023/04/05 05:22:47;;;;;;;6.90;3.60;;;9.60;99.90;;;;;;5051508;28;20021;-38
2023/04/05 05:25:13;;;;;;;7.43;4.43;;;9.60;99.90;;;;;;5052277;28;20075;-38
2023/04/05 05:27:39;;;;;;;16.98;8.18;;;9.50;99.90;;;;;;5051749;28;20025;-38
2023/04/05 05:30:05;;;;;;;18.27;8.85;;;9.50;99.90;;;;;;5052308;28;20554;-37
2023/04/05 05:32:30;;;;;;;14.38;7.22;;;9.50;99.90;;;;;;5052408;28;20025;-38
2023/04/05 05:34:56;;;;;;;12.00;6.00;;;9.50;99.90;;;;;;5052421;28;20041;-38
2023/04/05 05:37:29;;;;;;;10.77;4.88;;;9.50;99.90;;;;;;5051749;28;20017;-38
2023/04/05 05:39:55;;;;;;;8.18;5.00;;;9.40;99.90;;;;;;5052386;28;20445;-38
2023/04/05 05:42:20;;;;;;;8.45;5.05;;;9.40;99.90;;;;;;5052330;28;20055;-38
2023/04/05 05:44:46;;;;;;;11.70;5.20;;;9.40;99.90;;;;;;5052347;28;20498;-38
2023/04/05 05:47:12;;;;;;;8.45;4.88;;;9.40;99.90;;;;;;5051432;28;20529;-38
2023/04/05 05:49:37;;;;;;;11.60;5.10;;;9.40;99.90;;;;;;5052271;28;20017;-38
2023/04/05 05:52:03;;;;;;;9.10;4.85;;;9.40;99.90;;;;;;5051891;28;20025;-38
2023/04/05 05:54:29;;;;;;;8.57;4.30;;;9.40;99.90;;;;;;5051683;28;20502;-38
2023/04/05 05:56:55;;;;;;;10.13;4.45;;;9.40;99.90;;;;;;5051343;28;20494;-37
2023/04/05 05:59:21;;;;;;;8.68;4.57;;;9.50;99.90;;;;;;5052072;28;20552;-37
2023/04/05 06:01:47;;;;;;;7.25;4.20;;;9.40;99.90;;;;;;5053111;28;20033;-38
2023/04/05 06:04:13;;;;;;;9.35;4.65;;;9.50;99.90;;;;;;5051678;28;20111;-38
2023/04/05 06:06:42;;;;;;;10.00;4.45;;;9.80;99.90;;;;;;5051043;28;20536;-38
2023/04/05 06:09:11;;;;;;;10.95;4.38;;;10.00;99.90;;;;;;5051950;28;20025;-38
2023/04/05 06:11:36;;;;;;;9.55;4.63;;;10.00;99.90;;;;;;5051768;28;20062;-38
2023/04/05 06:14:02;;;;;;;8.65;4.88;;;10.00;99.90;;;;;;5051459;28;20483;-38
2023/04/05 06:16:29;;;;;;;7.13;4.38;;;9.90;99.90;;;;;;5050917;28;20040;-38
2023/04/05 06:18:55;;;;;;;7.55;4.30;;;9.90;99.90;;;;;;5051581;28;20029;-41
2023/04/05 06:21:21;;;;;;;7.43;4.03;;;9.80;99.90;;;;;;5051345;28;20055;-38
2023/04/05 06:23:46;;;;;;;7.20;3.97;;;9.80;99.90;;;;;;5051216;28;20017;-38
2023/04/05 06:26:17;;;;;;;8.90;4.28;;;9.70;99.90;;;;;;5050683;28;20026;-38
2023/04/05 06:28:46;;;;;;;7.03;4.50;;;9.70;99.90;;;;;;5051158;28;20033;-38
2023/04/05 06:31:13;;;;;;;7.00;4.03;;;9.70;99.90;;;;;;5051132;28;20019;-38
2023/04/05 06:33:38;;;;;;;6.78;4.57;;;9.70;99.90;;;;;;5050659;28;20025;-38
2023/04/05 06:36:04;;;;;;;8.32;4.22;;;9.70;99.90;;;;;;5051017;28;20036;-38
2023/04/05 06:38:30;;;;;;;11.10;6.20;;;9.70;99.90;;;;;;5051106;28;20470;-38
2023/04/05 06:40:55;;;;;;;10.30;5.90;;;9.60;99.90;;;;;;5051433;28;20082;-38
2023/04/05 06:43:21;;;;;;;10.02;5.72;;;9.20;99.90;;;;;;5051034;28;20389;-38
2023/04/05 06:45:46;;;;;;;10.30;5.68;;;9.10;99.90;;;;;;5050592;28;20033;-38
2023/04/05 06:48:12;;;;;;;9.27;5.28;;;9.00;99.90;;;;;;5050685;28;20067;-38
2023/04/05 06:50:39;;;;;;;11.43;5.60;;;8.90;99.90;;;;;;5050918;28;20028;-38
2023/04/05 06:53:05;;;;;;;10.02;5.65;;;8.90;99.90;;;;;;5051220;28;20071;-38
2023/04/05 06:55:31;;;;;;;12.40;5.80;;;8.90;99.90;;;;;;5050918;28;20029;-38
2023/04/05 06:57:57;;;;;;;9.30;5.28;;;8.90;99.90;;;;;;5050481;28;20052;-38
2023/04/05 07:00:23;;;;;;;12.68;5.60;;;8.90;99.90;;;;;;5050796;28;20495;-38
2023/04/05 07:02:48;;;;;;;11.43;5.38;;;8.90;99.90;;;;;;5050736;28;20112;-38
2023/04/05 07:05:14;;;;;;;11.20;5.22;;;8.90;99.90;;;;;;5050930;28;20035;-38
2023/04/05 07:07:42;;;;;;;8.98;5.38;;;9.00;99.90;;;;;;5050704;28;20040;-38
2023/04/05 07:10:08;;;;;;;8.77;5.03;;;9.00;99.90;;;;;;5051266;28;20095;-38
2023/04/05 07:12:33;;;;;;;6.72;4.50;;;9.00;99.90;;;;;;5050702;28;20489;-38
2023/04/05 07:14:59;;;;;;;7.93;4.60;;;9.00;99.90;;;;;;5050584;28;20060;-38
2023/04/05 07:17:25;;;;;;;8.82;4.60;;;9.10;99.90;;;;;;5050261;28;20025;-38
2023/04/05 07:19:50;;;;;;;8.25;4.55;;;9.10;99.90;;;;;;5050591;28;20028;-38
2023/04/05 07:22:16;;;;;;;10.70;5.03;;;9.10;99.90;;;;;;5050626;28;20029;-38
2023/04/05 07:24:44;;;;;;;7.70;4.63;;;9.20;99.90;;;;;;5050845;28;20114;-38
2023/04/05 07:27:10;;;;;;;6.88;4.13;;;9.20;99.90;;;;;;5049965;28;20024;-38
2023/04/05 07:29:39;;;;;;;8.70;4.35;;;9.20;99.90;;;;;;5050564;28;20100;-39
2023/04/05 07:32:06;;;;;;;9.23;4.18;;;9.30;99.90;;;;;;5050625;28;20079;-38
2023/04/05 07:34:32;;;;;;;7.55;4.38;;;9.30;99.90;;;;;;5050422;28;20368;-39
2023/04/05 07:36:58;;;;;;;7.82;4.05;;;9.30;99.90;;;;;;5050073;28;20044;-38
2023/04/05 07:39:24;;;;;;;11.88;4.47;;;9.40;99.90;;;;;;5050448;28;20033;-38
2023/04/05 07:41:50;;;;;;;6.90;3.80;;;9.40;99.90;;;;;;5050491;28;20498;-36
2023/04/05 07:44:16;;;;;;;9.05;4.13;;;9.40;99.90;;;;;;5050565;28;20021;-36
2023/04/05 07:46:44;;;;;;;8.82;4.47;;;9.50;99.90;;;;;;5053647;28;20024;-37
2023/04/05 07:49:13;;;;;;;7.75;4.20;;;9.50;99.90;;;;;;5054097;28;20108;-37
2023/04/05 07:51:39;;;;;;;7.43;3.75;;;9.50;99.90;;;;;;5054229;28;20081;-42
2023/04/05 07:54:05;;;;;;;7.25;3.60;;;9.50;99.90;;;;;;5054337;28;20097;-37
2023/04/05 07:56:31;;;;;;;7.03;3.70;;;9.60;99.90;;;;;;5053608;28;20472;-36
2023/04/05 07:58:58;;;;;;;7.78;4.00;;;9.60;99.90;;;;;;5054086;28;20044;-37
2023/04/05 08:01:26;;;;;;;7.00;3.80;;;9.60;99.90;;;;;;5053899;28;20036;-36
2023/04/05 08:03:53;;;;;;;6.63;3.40;;;9.60;99.90;;;;;;5054364;28;20040;-37
2023/04/05 08:06:19;;;;;;;5.97;3.58;;;9.70;99.90;;;;;;5053371;28;20017;-36
2023/04/05 08:08:45;;;;;;;5.75;3.30;;;9.70;99.90;;;;;;5053876;28;20171;-37
2023/04/05 08:11:12;;;;;;;5.93;3.70;;;9.70;99.90;;;;;;5053906;28;20060;-38
2023/04/05 08:13:40;;;;;;;6.55;3.95;;;9.80;99.90;;;;;;5054124;28;20029;-37
2023/04/05 08:16:07;;;;;;;7.32;3.70;;;9.80;99.90;;;;;;5053197;28;20031;-39
2023/04/05 08:18:32;;;;;;;7.28;3.22;;;9.80;99.90;;;;;;5053886;28;20487;-37
2023/04/05 08:20:58;;;;;;;5.60;3.10;;;9.80;99.90;;;;;;5053544;28;20032;-38
2023/04/05 08:23:24;;;;;;;6.28;3.53;;;9.90;99.90;;;;;;5053529;28;20165;-41
2023/04/05 08:25:50;;;;;;;7.18;3.30;;;9.90;99.90;;;;;;5053103;28;20028;-37
2023/04/05 08:28:16;;;;;;;4.43;2.95;;;9.90;99.90;;;;;;5053006;28;20386;-39
2023/04/05 08:30:41;;;;;;;4.15;3.10;;;9.90;99.90;;;;;;5053299;28;20055;-37
2023/04/05 08:33:07;;;;;;;5.15;3.13;;;10.00;99.90;;;;;;5053666;28;20021;-36
2023/04/05 08:35:36;;;;;;;4.28;2.78;;;10.00;99.90;;;;;;5053152;28;20017;-43
2023/04/05 08:38:02;;;;;;;5.32;3.13;;;10.00;99.90;;;;;;5053650;28;20108;-37
2023/04/05 08:40:42;;;;;;;4.45;2.88;;;10.00;99.90;;;;;;5053658;28;20033;-37
2023/04/05 08:43:21;;;;;;;5.75;3.13;;;10.00;99.90;;;;;;5053243;28;20029;-38
2023/04/05 08:45:50;;;;;;;5.00;2.65;;;10.10;99.90;;;;;;5054202;28;20037;-40
2023/04/05 08:48:16;;;;;;;5.57;3.00;;;10.10;99.90;;;;;;5052973;28;20021;-37
2023/04/05 08:50:48;;;;;;;6.28;3.10;;;10.10;99.90;;;;;;5053144;28;20024;-37
2023/04/05 08:53:14;;;;;;;5.20;3.13;;;10.10;99.90;;;;;;5051941;28;20108;-37
2023/04/05 08:55:40;;;;;;;4.72;2.75;;;10.10;99.90;;;;;;5052786;28;20546;-40
2023/04/05 08:58:11;;;;;;;3.83;2.80;;;10.20;99.90;;;;;;5053765;28;20530;-40
2023/04/05 09:00:39;;;;;;;6.97;2.63;;;10.20;99.90;;;;;;5052910;28;20021;-37
2023/04/05 09:03:07;;;;;;;9.55;5.40;;;10.20;99.90;;;;;;5052996;28;20032;-36
2023/04/05 09:05:36;;;;;;;7.75;4.90;;;10.20;99.90;;;;;;5052966;28;20033;-37
2023/04/05 09:08:02;;;;;;;12.20;5.00;;;9.90;98.50;;;;;;5052398;28;20033;-36
2023/04/05 09:10:28;;;;;;;10.27;5.15;;;9.80;99.70;;;;;;5052666;28;20048;-36
2023/04/05 09:12:55;;;;;;;11.13;4.45;;;9.80;99.90;;;;;;5052594;28;20064;-40
2023/04/05 09:15:23;;;;;;;5.88;4.25;;;9.80;99.90;;;;;;5052576;28;20029;-36
2023/04/05 09:17:49;;;;;;;7.75;3.92;;;9.80;99.90;;;;;;5052109;28;20029;-37
2023/04/05 09:20:15;;;;;;;6.88;3.75;;;9.80;99.90;;;;;;5053518;28;20111;-36
2023/04/05 09:22:44;;;;;;;8.27;3.95;;;9.80;99.90;;;;;;5052668;28;20506;-37
2023/04/05 09:25:09;;;;;;;5.45;3.83;;;9.90;99.90;;;;;;5052400;28;20040;-36
2023/04/05 09:27:52;;;;;;;6.90;3.95;;;10.00;99.90;;;;;;5051839;28;20037;-37
2023/04/05 09:30:22;;;;;;;6.85;3.42;;;10.00;99.90;;;;;;5053293;28;20028;-37
2023/04/05 09:32:50;;;;;;;5.72;3.25;;;10.00;99.90;;;;;;5052752;28;20021;-36
2023/04/05 09:35:18;;;;;;;6.10;3.50;;;10.00;99.90;;;;;;5052113;28;20032;-36
2023/04/05 09:37:54;;;;;;;5.50;3.30;;;10.10;99.90;;;;;;5051764;28;20060;-36
2023/04/05 09:40:21;;;;;;;4.85;3.03;;;10.10;99.90;;;;;;5052307;28;20033;-37
2023/04/05 09:42:47;;;;;;;6.57;3.30;;;10.10;99.90;;;;;;5051995;28;20033;-39
2023/04/05 09:45:14;;;;;;;5.55;2.88;;;10.20;99.90;;;;;;5051362;28;20028;-36
2023/04/05 09:47:40;;;;;;;5.50;3.17;;;10.20;99.90;;;;;;5052687;28;20107;-39
2023/04/05 09:50:15;;;;;;;5.38;2.65;;;10.20;99.90;;;;;;5051851;28;20029;-37
2023/04/05 09:52:41;;;;;;;6.53;2.92;;;10.20;99.90;;;;;;5052088;28;20029;-41
2023/04/05 09:55:08;;;;;;;5.93;2.53;;;10.30;99.90;;;;;;5053461;28;20091;-36
2023/04/05 09:57:38;;;;;;;6.57;2.72;;;10.30;99.90;;;;;;5052452;28;20021;-38
2023/04/05 10:00:05;;;;;;;3.72;2.35;;;10.30;99.90;;;;;;5052986;28;20053;-39
2023/04/05 10:02:40;;;;;;;3.35;2.45;;;10.30;99.90;;;;;;5052410;28;20033;-37
2023/04/05 10:05:12;;;;;;;3.75;2.50;;;10.30;99.90;;;;;;5052833;28;20037;-38
2023/04/05 10:07:39;;;;;;;4.70;2.28;;;10.30;99.90;;;;;;5050588;28;20032;-39
2023/04/05 10:10:05;;;;;;;4.90;2.40;;;10.30;99.90;;;;;;5051894;28;20075;-39
2023/04/05 10:12:32;;;;;;;6.95;2.30;;;10.40;99.90;;;;;;5052004;28;20029;-36
2023/04/05 10:14:58;;;;;;;3.83;2.38;;;10.40;99.90;;;;;;5052895;28;20021;-36
2023/04/05 10:17:33;;;;;;;3.83;2.20;;;10.50;99.90;;;;;;5052474;28;20033;-36
2023/04/05 10:20:14;;;;;;;3.42;2.50;;;10.40;99.90;;;;;;5051666;28;20055;-37
2023/04/05 10:22:43;;;;;;;2.60;2.00;;;10.40;99.90;;;;;;5052060;28;20263;-36
2023/04/05 10:25:32;;;;;;;5.13;2.40;;;10.50;99.90;;;;;;5052240;28;20057;-40
2023/04/05 10:28:24;;;;;;;4.53;2.10;;;10.40;99.90;;;;;;5050845;28;20031;-38
2023/04/05 10:30:54;;;;;;;3.60;2.13;;;10.50;99.90;;;;;;5043632;28;20033;-36
2023/04/05 10:33:44;;;;;;;3.90;2.28;;;10.50;99.90;;;;;;5052448;28;20017;-37
2023/04/05 10:36:10;;;;;;;3.67;2.03;;;10.50;99.90;;;;;;5048634;28;20480;-39
2023/04/05 10:39:03;;;;;;;5.85;2.40;;;10.50;99.90;;;;;;5051984;28;20086;-36
2023/04/05 10:41:34;;;;;;;4.00;2.13;;;10.60;99.90;;;;;;5051820;28;20127;-37
2023/04/05 10:44:02;;;;;;;4.00;2.17;;;10.60;99.90;;;;;;5051004;28;20021;-38
2023/04/05 10:46:30;;;;;;;3.00;1.70;;;10.60;99.90;;;;;;5050470;28;20025;-36
2023/04/05 10:49:10;;;;;;;3.45;2.10;;;10.60;99.90;;;;;;5052218;28;20399;-37
2023/04/05 10:51:37;;;;;;;3.78;1.90;;;10.60;99.90;;;;;;5053106;28;20021;-37
2023/04/05 10:54:04;;;;;;;4.22;1.88;;;10.70;99.90;;;;;;5052444;28;20021;-36
2023/04/05 10:56:31;;;;;;;3.17;1.80;;;10.60;99.90;;;;;;5051074;28;20071;-38
2023/04/05 10:58:59;;;;;;;4.78;2.45;;;10.70;99.90;;;;;;5052448;28;20021;-37
2023/04/05 11:01:25;;;;;;;3.35;2.00;;;10.60;99.90;;;;;;5052928;28;20105;-37
2023/04/05 11:03:51;;;;;;;2.78;1.98;;;10.70;99.90;;;;;;5051802;28;20029;-36
2023/04/05 11:06:18;;;;;;;3.00;2.10;;;10.70;99.90;;;;;;5050902;28;20033;-36
2023/04/05 11:08:45;;;;;;;4.03;2.25;;;10.70;99.90;;;;;;5052404;28;20029;-41
2023/04/05 11:11:15;;;;;;;3.42;2.05;;;10.70;99.90;;;;;;5052102;28;20143;-38
2023/04/05 11:13:53;;;;;;;3.63;1.98;;;10.70;99.90;;;;;;5051437;28;20438;-37
2023/04/05 11:16:20;;;;;;;4.00;1.80;;;10.70;99.90;;;;;;5051133;28;20029;-37
2023/04/05 11:18:48;;;;;;;4.15;1.88;;;10.70;99.90;;;;;;5052302;28;20033;-39
2023/04/05 11:21:30;;;;;;;4.05;1.92;;;10.80;99.90;;;;;;5055102;28;20537;-36
2023/04/05 11:24:11;;;;;;;3.20;1.92;;;10.80;99.90;;;;;;5054971;28;20493;-37
2023/04/05 11:26:39;;;;;;;2.50;1.77;;;10.80;99.90;;;;;;5055535;28;20067;-39
2023/04/05 11:29:06;;;;;;;2.70;1.88;;;10.80;99.90;;;;;;5055661;28;20100;-38
2023/04/05 11:31:31;;;;;;;3.50;2.13;;;10.80;99.90;;;;;;5055809;28;20052;-38
2023/04/05 11:34:09;;;;;;;2.95;1.63;;;10.80;99.90;;;;;;5055573;28;20048;-38
2023/04/05 11:36:35;;;;;;;6.70;3.28;;;10.80;99.90;;;;;;5055377;28;20028;-41
2023/04/05 11:39:21;;;;;;;5.40;3.25;;;10.80;99.90;;;;;;5054662;28;20021;-36
2023/04/05 11:42:02;;;;;;;6.43;3.17;;;10.70;99.90;;;;;;5056400;28;20112;-38
2023/04/05 11:44:38;;;;;;;3.88;2.60;;;10.70;99.90;;;;;;5054601;28;20025;-38
2023/04/05 11:47:04;;;;;;;5.75;2.60;;;10.70;99.90;;;;;;5055025;28;20029;-36
2023/04/05 11:49:29;;;;;;;6.13;2.60;;;10.70;99.90;;;;;;5055332;28;20017;-39
2023/04/05 11:51:56;;;;;;;5.40;2.40;;;10.80;99.90;;;;;;5054539;28;20124;-36
2023/04/05 11:54:28;;;;;;;5.32;2.33;;;10.80;99.90;;;;;;5055707;28;20028;-38
2023/04/05 11:56:54;;;;;;;5.95;2.75;;;10.80;99.90;;;;;;5054021;28;20365;-37
2023/04/05 11:59:31;;;;;;;4.10;2.28;;;10.80;99.90;;;;;;5054643;28;20028;-36
2023/04/05 12:02:07;;;;;;;3.67;2.28;;;10.80;99.90;;;;;;5055135;28;20067;-38
2023/04/05 12:04:37;;;;;;;6.03;2.30;;;10.80;99.90;;;;;;5055144;28;20390;-38
2023/04/05 12:07:17;;;;;;;2.70;2.03;;;10.80;99.90;;;;;;5055349;28;20078;-37
2023/04/05 12:10:18;;;;;;;2.83;2.30;;;10.80;99.90;;;;;;5054419;28;20017;-38
2023/04/05 12:12:46;;;;;;;4.28;2.28;;;10.90;99.90;;;;;;5032551;28;20069;-38
2023/04/05 12:15:13;;;;;;;6.07;2.30;;;10.90;99.90;;;;;;5050054;28;20043;-36
2023/04/05 12:17:48;;;;;;;3.85;1.83;;;10.90;99.90;;;;;;5053273;28;20322;-36
2023/04/05 12:20:16;;;;;;;3.90;2.35;;;10.90;99.90;;;;;;5056314;28;20020;-40
2023/04/05 12:22:44;;;;;;;4.18;1.83;;;10.90;99.90;;;;;;5054153;28;20029;-37
2023/04/05 12:25:11;;;;;;;3.90;2.10;;;11.00;99.90;;;;;;5054700;28;20033;-38
2023/04/05 12:27:38;;;;;;;4.07;2.03;;;10.90;99.90;;;;;;5053157;28;20036;-38
2023/04/05 12:30:22;;;;;;;2.58;1.67;;;11.00;99.90;;;;;;5053771;28;20536;-36
2023/04/05 12:32:52;;;;;;;;;;;11.00;99.90;;;;;;5053039;28;20017;-38
2023/04/05 12:35:31;;;;;;;3.50;2.05;;;11.10;99.90;;;;;;5053796;28;19999;-39
2023/04/05 12:38:02;;;;;;;3.50;1.90;;;11.00;99.90;;;;;;5053121;28;20021;-36
2023/04/05 12:40:29;;;;;;;2.90;1.88;;;11.10;99.90;;;;;;5054827;28;20028;-36
2023/04/05 12:43:02;;;;;;;3.00;1.83;;;11.10;99.90;;;;;;5054248;28;20075;-39
2023/04/05 12:45:28;;;;;;;2.92;1.70;;;11.00;99.90;;;;;;5053652;28;20406;-38
2023/04/05 12:48:00;;;;;;;5.15;3.03;;;11.10;99.90;;;;;;5053630;28;20025;-38
2023/04/05 12:50:28;;;;;;;5.45;3.40;;;11.10;99.90;;;;;;5053954;28;20082;-36
2023/04/05 12:52:57;;;;;;;5.00;3.05;;;11.10;99.90;;;;;;5054796;28;20028;-36
2023/04/05 12:55:25;;;;;;;5.57;2.90;;;11.00;99.90;;;;;;5055095;28;20025;-36
2023/04/05 12:58:00;;;;;;;4.15;2.97;;;11.00;99.40;;;;;;5051442;28;20029;-37